createdAt,value
2023-03-29T00:00:24.074Z,4.72
2023-03-29T00:02:51.359Z,4.47
2023-03-29T00:05:22.887Z,4.75
2023-03-29T00:07:54.025Z,4.53
2023-03-29T00:10:25.230Z,4.50
2023-03-29T00:12:52.678Z,4.68
2023-03-29T00:15:20.652Z,4.50
2023-03-29T00:17:47.782Z,4.50
2023-03-29T00:20:14.653Z,5.03
2023-03-29T00:22:42.500Z,4.75
2023-03-29T00:25:10.925Z,4.55
2023-03-29T00:27:38.449Z,4.18
2023-03-29T00:30:07.513Z,4.30
2023-03-29T00:32:34.632Z,4.68
2023-03-29T00:35:01.915Z,4.10
2023-03-29T00:37:30.048Z,5.10
2023-03-29T00:39:57.616Z,4.80
2023-03-29T00:42:26.053Z,4.15
2023-03-29T00:45:25.408Z,4.28
2023-03-29T00:48:01.016Z,4.78
2023-03-29T00:50:31.880Z,4.90
2023-03-29T00:53:07.864Z,4.78
2023-03-29T00:55:59.565Z,5.15
2023-03-29T00:58:35.822Z,5.28
2023-03-29T01:01:13.721Z,4.40
2023-03-29T01:03:46.934Z,4.93
2023-03-29T01:06:18.361Z,4.82
2023-03-29T01:08:55.658Z,5.13
2023-03-29T01:11:34.811Z,4.75
2023-03-29T01:14:05.512Z,4.88
2023-03-29T01:16:35.167Z,5.05
2023-03-29T01:19:02.367Z,5.05
2023-03-29T01:21:42.626Z,4.97
2023-03-29T01:24:48.189Z,4.95
2023-03-29T01:27:38.081Z,4.90
2023-03-29T01:30:13.012Z,4.65
2023-03-29T01:32:50.549Z,4.93
2023-03-29T01:35:28.206Z,5.45
2023-03-29T01:38:19.479Z,5.07
2023-03-29T01:40:46.394Z,4.75
2023-03-29T01:43:56.750Z,4.40
2023-03-29T01:46:40.877Z,4.88
2023-03-29T01:49:29.689Z,4.75
2023-03-29T01:52:21.526Z,4.93
2023-03-29T01:54:59.245Z,4.70
2023-03-29T01:57:27.024Z,5.53
2023-03-29T01:59:57.589Z,5.00
2023-03-29T02:02:27.214Z,4.65
2023-03-29T02:04:57.420Z,4.68
2023-03-29T02:07:30.570Z,4.47
2023-03-29T02:09:58.888Z,4.60
2023-03-29T02:12:25.905Z,5.75
2023-03-29T02:14:54.432Z,4.40
2023-03-29T02:17:26.709Z,4.68
2023-03-29T02:20:14.831Z,4.63
2023-03-29T02:22:52.174Z,4.65
2023-03-29T02:25:19.476Z,5.45
2023-03-29T02:27:46.578Z,4.55
2023-03-29T02:30:15.746Z,4.68
2023-03-29T02:32:49.395Z,4.88
2023-03-29T02:35:42.101Z,5.10
2023-03-29T02:38:14.669Z,4.80
2023-03-29T02:40:42.952Z,4.82
2023-03-29T02:43:11.525Z,5.25
2023-03-29T02:45:40.516Z,4.93
2023-03-29T02:48:12.092Z,4.57
2023-03-29T02:50:41.796Z,4.72
2023-03-29T02:53:34.695Z,5.45
2023-03-29T02:56:04.179Z,5.10
2023-03-29T02:58:31.732Z,4.85
2023-03-29T03:01:02.308Z,4.43
2023-03-29T03:03:29.609Z,4.80
2023-03-29T03:06:01.641Z,5.22
2023-03-29T03:08:30.099Z,4.50
2023-03-29T03:10:57.225Z,5.20
2023-03-29T03:13:25.106Z,4.93
2023-03-29T03:15:52.126Z,4.93
2023-03-29T03:18:19.201Z,4.47
2023-03-29T03:20:59.413Z,4.72
2023-03-29T03:23:26.713Z,5.05
2023-03-29T03:25:53.884Z,4.97
2023-03-29T03:28:22.128Z,4.72
2023-03-29T03:30:49.622Z,4.80
2023-03-29T03:33:27.044Z,5.03
2023-03-29T03:36:12.494Z,5.18
2023-03-29T03:38:44.065Z,5.00
2023-03-29T03:41:11.719Z,5.05
2023-03-29T03:43:41.462Z,6.05
2023-03-29T03:46:08.672Z,4.90
2023-03-29T03:48:37.127Z,4.63
2023-03-29T03:51:16.987Z,5.55
2023-03-29T03:53:44.234Z,5.22
2023-03-29T03:56:11.230Z,5.63
2023-03-29T03:58:55.732Z,5.40
2023-03-29T04:01:24.008Z,4.97
2023-03-29T04:04:01.363Z,4.85
2023-03-29T04:06:30.642Z,4.72
2023-03-29T04:09:33.813Z,5.18
2023-03-29T04:12:15.142Z,5.00
2023-03-29T04:14:42.873Z,6.07
2023-03-29T04:17:16.018Z,6.03
2023-03-29T04:19:54.008Z,5.60
2023-03-29T04:22:20.961Z,5.63
2023-03-29T04:24:48.606Z,5.90
2023-03-29T04:27:45.393Z,5.75
2023-03-29T04:30:23.315Z,5.32
2023-03-29T04:33:29.425Z,5.35
2023-03-29T04:36:00.283Z,5.22
2023-03-29T04:38:27.581Z,6.25
2023-03-29T04:40:55.271Z,5.72
2023-03-29T04:43:46.621Z,6.22
2023-03-29T04:46:32.496Z,6.40
2023-03-29T04:49:32.453Z,5.65
2023-03-29T04:52:00.979Z,5.93
2023-03-29T04:54:30.838Z,5.63
2023-03-29T04:57:17.128Z,6.20
2023-03-29T04:59:53.049Z,6.22
2023-03-29T05:02:40.542Z,6.15
2023-03-29T05:05:08.485Z,6.35
2023-03-29T05:07:35.907Z,6.47
2023-03-29T05:10:03.277Z,5.93
2023-03-29T05:12:30.163Z,6.43
2023-03-29T05:14:57.414Z,6.43
2023-03-29T05:17:27.479Z,6.70
2023-03-29T05:20:00.993Z,7.15
2023-03-29T05:22:29.716Z,6.97
2023-03-29T05:24:57.492Z,7.05
2023-03-29T05:27:24.716Z,7.10
2023-03-29T05:30:06.591Z,6.97
2023-03-29T05:32:43.019Z,7.07
2023-03-29T05:35:13.406Z,6.90
2023-03-29T05:37:40.685Z,6.88
2023-03-29T05:40:10.184Z,7.25
2023-03-29T05:42:59.514Z,7.18
2023-03-29T05:45:28.573Z,7.43
2023-03-29T05:47:57.529Z,6.53
2023-03-29T05:50:24.813Z,7.30
2023-03-29T05:52:55.234Z,8.30
2023-03-29T05:55:23.707Z,8.07
2023-03-29T05:57:51.026Z,7.13
2023-03-29T06:00:25.633Z,7.32
2023-03-29T06:03:17.701Z,6.93
2023-03-29T06:05:55.113Z,7.30
2023-03-29T06:08:22.397Z,6.75
2023-03-29T06:10:57.324Z,7.00
2023-03-29T06:13:42.214Z,7.60
2023-03-29T06:16:10.733Z,7.05
2023-03-29T06:18:41.382Z,7.95
2023-03-29T06:21:09.455Z,7.53
2023-03-29T06:23:36.943Z,6.90
2023-03-29T06:26:05.646Z,7.55
2023-03-29T06:28:32.991Z,7.72
2023-03-29T06:31:02.704Z,7.72
2023-03-29T06:33:37.179Z,7.80
2023-03-29T06:36:27.169Z,7.03
2023-03-29T06:38:54.305Z,8.20
2023-03-29T06:41:46.840Z,8.18
2023-03-29T06:44:35.741Z,8.48
2023-03-29T06:49:37.507Z,7.65
2023-03-29T06:54:40.730Z,8.60
2023-03-29T06:57:08.272Z,8.95
2023-03-29T06:59:35.620Z,9.40
2023-03-29T07:02:29.251Z,8.98
2023-03-29T07:05:22.555Z,9.10
2023-03-29T07:08:08.339Z,8.80
2023-03-29T07:10:48.919Z,9.93
2023-03-29T07:13:34.301Z,8.70
2023-03-29T07:16:04.757Z,9.02
2023-03-29T07:18:55.135Z,10.48
2023-03-29T07:21:41.216Z,9.55
2023-03-29T07:24:10.217Z,9.52
2023-03-29T07:26:38.103Z,9.68
2023-03-29T07:29:06.339Z,9.82
2023-03-29T07:31:35.721Z,9.35
2023-03-29T07:34:22.899Z,10.35
2023-03-29T07:36:50.030Z,8.85
2023-03-29T07:39:16.953Z,8.77
2023-03-29T07:42:03.864Z,9.40
2023-03-29T07:44:30.953Z,9.20
2023-03-29T07:46:59.977Z,9.45
2023-03-29T07:49:27.347Z,8.57
2023-03-29T07:51:54.967Z,9.63
2023-03-29T07:54:23.408Z,9.20
2023-03-29T07:57:01.591Z,8.50
2023-03-29T07:59:36.288Z,9.13
2023-03-29T08:02:11.687Z,8.20
2023-03-29T08:04:41.637Z,8.73
2023-03-29T08:07:34.857Z,9.15
2023-03-29T08:10:21.546Z,8.82
2023-03-29T08:12:58.186Z,9.13
2023-03-29T08:15:46.218Z,9.55
2023-03-29T08:18:23.440Z,9.43
2023-03-29T08:20:51.846Z,8.20
2023-03-29T08:23:19.097Z,9.18
2023-03-29T08:25:54.850Z,7.97
2023-03-29T08:28:22.370Z,6.72
2023-03-29T08:30:51.602Z,7.47
2023-03-29T08:33:19.022Z,8.15
2023-03-29T08:35:51.546Z,8.63
2023-03-29T08:38:22.704Z,7.88
2023-03-29T08:40:51.897Z,8.30
2023-03-29T08:44:01.815Z,7.60
2023-03-29T08:47:08.307Z,7.63
2023-03-29T08:49:45.298Z,7.72
2023-03-29T08:52:38.406Z,7.13
2023-03-29T08:55:22.720Z,8.18
2023-03-29T08:58:24.385Z,8.02
2023-03-29T09:00:55.344Z,7.63
2023-03-29T09:03:26.577Z,7.00
2023-03-29T09:06:09.472Z,6.88
2023-03-29T09:08:41.994Z,6.97
2023-03-29T09:11:24.381Z,7.70
2023-03-29T09:14:13.356Z,7.35
2023-03-29T09:17:01.144Z,6.65
2023-03-29T09:19:41.937Z,6.47
2023-03-29T09:22:28.076Z,6.78
2023-03-29T09:25:08.849Z,6.10
2023-03-29T09:27:42.095Z,7.13
2023-03-29T09:30:27.460Z,7.28
2023-03-29T09:33:08.132Z,6.78
2023-03-29T09:35:51.516Z,7.63
2023-03-29T09:38:21.322Z,6.45
2023-03-29T09:40:55.969Z,6.88
2023-03-29T09:43:44.903Z,6.18
2023-03-29T09:46:40.550Z,6.78
2023-03-29T09:49:20.621Z,6.25
2023-03-29T09:51:50.031Z,5.10
2023-03-29T09:54:19.168Z,5.03
2023-03-29T09:57:14.032Z,5.47
2023-03-29T09:59:41.182Z,4.90
2023-03-29T10:02:11.973Z,4.72
2023-03-29T10:04:40.001Z,6.15
2023-03-29T10:07:08.825Z,6.30
2023-03-29T10:09:36.483Z,6.70
2023-03-29T10:12:17.094Z,6.22
2023-03-29T10:14:48.057Z,6.70
2023-03-29T10:17:28.091Z,7.20
2023-03-29T10:20:04.215Z,6.70
2023-03-29T10:22:37.877Z,6.43
2023-03-29T10:25:09.501Z,7.53
2023-03-29T10:27:36.661Z,7.38
2023-03-29T10:30:12.986Z,7.78
2023-03-29T10:32:41.174Z,7.75
2023-03-29T10:35:19.956Z,7.40
2023-03-29T10:37:51.881Z,8.57
2023-03-29T10:40:32.570Z,8.32
2023-03-29T10:43:01.942Z,7.55
2023-03-29T10:45:35.308Z,7.78
2023-03-29T10:48:06.825Z,7.00
2023-03-29T10:50:35.617Z,7.55
2023-03-29T10:53:03.616Z,7.80
2023-03-29T10:55:41.061Z,8.75
2023-03-29T10:58:37.739Z,7.63
2023-03-29T11:01:05.899Z,6.78
2023-03-29T11:03:56.227Z,7.15
2023-03-29T11:06:43.743Z,7.50
2023-03-29T11:09:41.384Z,5.72
2023-03-29T11:12:16.421Z,6.40
2023-03-29T11:14:56.147Z,6.20
2023-03-29T11:17:44.751Z,6.90
2023-03-29T11:20:30.446Z,6.38
2023-03-29T11:23:27.502Z,5.35
2023-03-29T11:26:38.497Z,5.05
2023-03-29T11:29:35.863Z,4.22
2023-03-29T11:32:34.562Z,4.53
2023-03-29T11:35:19.844Z,4.00
2023-03-29T11:38:13.783Z,4.30
2023-03-29T11:40:48.628Z,4.32
2023-03-29T11:43:27.696Z,4.47
2023-03-29T11:46:18.268Z,4.70
2023-03-29T11:49:04.377Z,4.88
2023-03-29T11:52:04.269Z,4.47
2023-03-29T11:54:48.049Z,5.18
2023-03-29T11:57:25.426Z,4.93
2023-03-29T12:00:12.376Z,4.88
2023-03-29T12:03:02.862Z,4.68
2023-03-29T12:05:46.851Z,5.28
2023-03-29T12:08:20.491Z,4.75
2023-03-29T12:10:58.771Z,4.78
2023-03-29T12:13:36.688Z,4.82
2023-03-29T12:16:16.522Z,4.78
2023-03-29T12:18:46.909Z,4.60
2023-03-29T12:21:18.465Z,4.30
2023-03-29T12:23:48.120Z,3.85
2023-03-29T12:26:17.925Z,4.60
2023-03-29T12:29:11.071Z,3.67
2023-03-29T12:31:50.279Z,3.55
2023-03-29T12:34:24.905Z,3.88
2023-03-29T12:37:11.450Z,4.07
2023-03-29T12:40:17.915Z,5.05
2023-03-29T12:43:07.706Z,4.25
2023-03-29T12:46:06.071Z,4.93
2023-03-29T12:48:34.103Z,4.38
2023-03-29T12:51:07.780Z,5.22
2023-03-29T12:53:38.855Z,5.13
2023-03-29T12:56:08.697Z,4.30
2023-03-29T12:58:55.620Z,4.65
2023-03-29T13:01:34.604Z,4.25
2023-03-29T13:04:01.600Z,4.47
2023-03-29T13:06:34.424Z,4.28
2023-03-29T13:09:24.095Z,4.28
2023-03-29T13:12:05.657Z,3.47
2023-03-29T13:14:37.201Z,3.47
2023-03-29T13:17:17.884Z,3.90
2023-03-29T13:20:21.885Z,4.40
2023-03-29T13:23:26.454Z,3.85
2023-03-29T13:26:09.488Z,3.63
2023-03-29T13:28:51.153Z,3.90
2023-03-29T13:31:30.860Z,4.15
2023-03-29T13:34:03.980Z,3.92
2023-03-29T13:36:56.660Z,3.50
2023-03-29T13:39:29.362Z,3.03
2023-03-29T13:42:38.994Z,3.33
2023-03-29T13:45:28.007Z,3.10
2023-03-29T13:48:22.490Z,3.50
2023-03-29T13:50:54.225Z,3.53
2023-03-29T13:53:53.383Z,3.50
2023-03-29T13:56:25.092Z,4.10
2023-03-29T13:59:09.806Z,4.18
2023-03-29T14:01:45.765Z,4.03
2023-03-29T14:04:25.281Z,4.72
2023-03-29T14:06:55.008Z,4.50
2023-03-29T14:09:28.175Z,4.03
2023-03-29T14:11:55.133Z,4.22
2023-03-29T14:14:25.499Z,4.25
2023-03-29T14:16:55.464Z,4.38
2023-03-29T14:19:32.091Z,4.15
2023-03-29T14:22:03.334Z,4.18
2023-03-29T14:24:44.832Z,4.43
2023-03-29T14:27:12.389Z,4.38
2023-03-29T14:29:39.252Z,4.50
2023-03-29T14:32:11.348Z,5.07
2023-03-29T14:34:39.437Z,5.05
2023-03-29T14:37:09.224Z,5.47
2023-03-29T14:39:36.598Z,5.60
2023-03-29T14:42:10.730Z,5.15
2023-03-29T14:44:37.680Z,5.45
2023-03-29T14:47:04.681Z,6.97
2023-03-29T14:49:32.317Z,5.80
2023-03-29T14:51:59.450Z,7.30
2023-03-29T14:54:29.176Z,6.43
2023-03-29T14:56:56.813Z,8.02
2023-03-29T14:59:32.068Z,6.30
2023-03-29T15:01:59.093Z,6.88
2023-03-29T15:04:35.942Z,7.22
2023-03-29T15:07:04.983Z,6.60
2023-03-29T15:09:34.608Z,7.15
2023-03-29T15:12:03.391Z,7.38
2023-03-29T15:14:38.010Z,7.80
2023-03-29T15:17:21.203Z,7.28
2023-03-29T15:19:53.143Z,7.22
2023-03-29T15:22:20.385Z,10.70
2023-03-29T15:24:49.756Z,7.20
2023-03-29T15:27:19.570Z,7.50
2023-03-29T15:29:47.391Z,8.35
2023-03-29T15:32:22.807Z,8.38
2023-03-29T15:35:05.017Z,8.38
2023-03-29T15:37:32.648Z,8.45
2023-03-29T15:40:00.165Z,8.68
2023-03-29T15:42:27.251Z,9.00
2023-03-29T15:44:56.557Z,8.60
2023-03-29T15:47:24.025Z,8.40
2023-03-29T15:49:51.060Z,9.07
2023-03-29T15:52:18.253Z,8.15
2023-03-29T15:54:45.070Z,8.88
2023-03-29T15:57:15.630Z,8.60
2023-03-29T15:59:43.667Z,7.95
2023-03-29T16:02:16.926Z,8.15
2023-03-29T16:04:44.084Z,9.13
2023-03-29T16:07:14.895Z,8.80
2023-03-29T16:09:42.370Z,7.82
2023-03-29T16:12:10.444Z,8.38
2023-03-29T16:14:38.012Z,7.75
2023-03-29T16:17:05.961Z,7.78
2023-03-29T16:19:34.134Z,7.90
2023-03-29T16:22:04.995Z,10.05
2023-03-29T16:24:32.884Z,8.25
2023-03-29T16:27:01.418Z,7.97
2023-03-29T16:29:28.867Z,7.55
2023-03-29T16:31:55.775Z,7.63
2023-03-29T16:34:23.301Z,7.53
2023-03-29T16:36:50.746Z,6.47
2023-03-29T16:39:18.339Z,7.90
2023-03-29T16:41:48.433Z,7.63
2023-03-29T16:44:23.639Z,7.18
2023-03-29T16:46:54.216Z,7.28
2023-03-29T16:49:21.738Z,6.63
2023-03-29T16:51:48.788Z,6.70
2023-03-29T16:54:19.951Z,6.70
2023-03-29T16:56:47.172Z,6.32
2023-03-29T16:59:14.387Z,6.18
2023-03-29T17:01:41.605Z,6.85
2023-03-29T17:04:09.130Z,6.75
2023-03-29T17:06:36.359Z,7.55
2023-03-29T17:09:05.048Z,6.45
2023-03-29T17:11:32.356Z,7.35
2023-03-29T17:13:59.991Z,6.35
2023-03-29T17:16:29.093Z,6.50
2023-03-29T17:19:00.121Z,6.03
2023-03-29T17:21:28.885Z,6.20
2023-03-29T17:23:55.820Z,6.50
2023-03-29T17:26:22.749Z,6.78
2023-03-29T17:28:49.914Z,7.05
2023-03-29T17:31:19.005Z,7.82
2023-03-29T17:33:45.864Z,7.20
2023-03-29T17:36:12.924Z,8.18
2023-03-29T17:38:39.779Z,7.07
2023-03-29T17:41:07.932Z,7.45
2023-03-29T17:43:34.820Z,8.05
2023-03-29T17:46:02.163Z,6.80
2023-03-29T17:48:29.253Z,6.53
2023-03-29T17:50:57.344Z,7.47
2023-03-29T17:53:24.772Z,7.32
2023-03-29T17:55:52.555Z,7.60
2023-03-29T17:58:19.704Z,9.15
2023-03-29T18:00:46.605Z,8.52
2023-03-29T18:03:13.628Z,8.25
2023-03-29T18:05:40.845Z,8.48
2023-03-29T18:08:08.692Z,8.27
2023-03-29T18:10:36.854Z,8.25
2023-03-29T18:13:03.796Z,7.68
2023-03-29T18:15:30.758Z,7.38
2023-03-29T18:17:57.709Z,8.23
2023-03-29T18:20:24.691Z,8.43
2023-03-29T18:22:51.489Z,8.88
2023-03-29T18:25:19.992Z,10.20
2023-03-29T18:27:46.974Z,9.77
2023-03-29T18:30:16.623Z,9.50
2023-03-29T18:32:43.649Z,10.18
2023-03-29T18:35:10.696Z,10.63
2023-03-29T18:37:37.585Z,10.20
2023-03-29T18:40:08.084Z,10.60
2023-03-29T18:42:35.125Z,10.20
2023-03-29T18:45:02.216Z,9.93
2023-03-29T18:47:29.151Z,10.30
2023-03-29T18:49:56.095Z,11.25
2023-03-29T18:52:23.411Z,11.20
2023-03-29T18:54:50.442Z,10.38
2023-03-29T18:57:17.533Z,10.45
2023-03-29T18:59:44.350Z,11.07
2023-03-29T19:02:11.289Z,11.52
2023-03-29T19:04:38.233Z,10.90
2023-03-29T19:07:05.185Z,10.70
2023-03-29T19:09:32.390Z,11.70
2023-03-29T19:11:59.415Z,10.25
2023-03-29T19:14:26.302Z,10.00
2023-03-29T19:16:53.461Z,10.85
2023-03-29T19:19:22.482Z,9.65
2023-03-29T19:21:50.038Z,10.38
2023-03-29T19:24:17.075Z,10.35
2023-03-29T19:26:44.750Z,10.45
2023-03-29T19:29:11.748Z,9.35
2023-03-29T19:31:38.900Z,9.23
2023-03-29T19:34:06.933Z,8.95
2023-03-29T19:36:34.017Z,9.43
2023-03-29T19:39:01.209Z,10.30
2023-03-29T19:41:28.654Z,10.15
2023-03-29T19:43:55.698Z,9.02
2023-03-29T19:46:22.909Z,10.20
2023-03-29T19:48:51.835Z,9.25
2023-03-29T19:51:19.499Z,10.23
2023-03-29T19:53:46.465Z,9.98
2023-03-29T19:56:14.794Z,10.02
2023-03-29T19:58:41.962Z,10.15
2023-03-29T20:01:08.848Z,10.73
2023-03-29T20:03:36.233Z,10.40
2023-03-29T20:06:03.719Z,9.48
2023-03-29T20:08:30.602Z,9.18
2023-03-29T20:11:03.948Z,10.38
2023-03-29T20:13:38.285Z,9.32
2023-03-29T20:16:14.147Z,8.25
2023-03-29T20:18:41.522Z,7.10
2023-03-29T20:21:09.334Z,7.30
2023-03-29T20:23:36.760Z,5.32
2023-03-29T20:26:03.698Z,5.38
2023-03-29T20:28:31.450Z,5.70
2023-03-29T20:31:06.901Z,5.72
2023-03-29T20:36:01.008Z,5.13
2023-03-29T20:38:28.221Z,5.22
2023-03-29T20:40:55.407Z,4.47
2023-03-29T20:43:22.916Z,4.72
2023-03-29T20:45:52.622Z,5.10
2023-03-29T20:48:23.108Z,4.78
2023-03-29T20:50:51.396Z,5.05
2023-03-29T20:53:20.270Z,4.68
2023-03-29T20:55:47.877Z,4.63
2023-03-29T20:58:16.030Z,4.70
2023-03-29T21:00:43.844Z,5.40
2023-03-29T21:03:11.297Z,4.53
2023-03-29T21:05:38.933Z,3.80
2023-03-29T21:08:06.087Z,4.90
2023-03-29T21:10:33.274Z,4.28
2023-03-29T21:13:00.619Z,4.38
2023-03-29T21:15:30.521Z,4.07
2023-03-29T21:17:58.095Z,3.88
2023-03-29T21:20:25.392Z,4.30
2023-03-29T21:22:52.342Z,4.28
2023-03-29T21:25:19.604Z,3.53
2023-03-29T21:27:46.902Z,3.65
2023-03-29T21:30:14.087Z,3.55
2023-03-29T21:32:41.602Z,3.28
2023-03-29T21:35:09.625Z,3.80
2023-03-29T21:37:36.616Z,3.45
2023-03-29T21:40:09.250Z,3.40
2023-03-29T21:42:36.729Z,3.58
2023-03-29T21:45:04.600Z,3.40
2023-03-29T21:47:31.611Z,3.10
2023-03-29T21:49:58.509Z,3.38
2023-03-29T21:52:25.497Z,3.28
2023-03-29T21:54:52.448Z,3.22
2023-03-29T21:57:19.401Z,3.00
2023-03-29T21:59:46.332Z,3.22
2023-03-29T22:02:13.412Z,2.60
2023-03-29T22:04:40.517Z,2.63
2023-03-29T22:07:08.337Z,3.50
2023-03-29T22:09:35.521Z,3.28
2023-03-29T22:12:03.485Z,3.25
2023-03-29T22:14:35.098Z,3.15
2023-03-29T22:17:05.842Z,3.30
2023-03-29T22:19:34.744Z,3.65
2023-03-29T22:22:01.755Z,3.38
2023-03-29T22:24:29.217Z,3.40
2023-03-29T22:26:56.165Z,3.25
2023-03-29T22:29:23.122Z,3.40
2023-03-29T22:31:50.552Z,2.95
2023-03-29T22:34:17.750Z,3.17
2023-03-29T22:36:44.588Z,2.80
2023-03-29T22:39:12.064Z,3.30
2023-03-29T22:41:39.012Z,3.65
2023-03-29T22:44:06.184Z,3.20
2023-03-29T22:46:33.188Z,3.03
2023-03-29T22:49:00.244Z,3.33
2023-03-29T22:51:27.377Z,4.03
2023-03-29T22:53:54.533Z,3.42
2023-03-29T22:56:22.033Z,2.85
2023-03-29T22:58:49.270Z,3.40
2023-03-29T23:01:16.250Z,3.40
2023-03-29T23:03:43.398Z,2.80
2023-03-29T23:06:10.529Z,2.92
2023-03-29T23:08:37.468Z,3.45
2023-03-29T23:11:04.874Z,3.20
2023-03-29T23:13:33.395Z,2.95
2023-03-29T23:16:02.350Z,2.80
2023-03-29T23:18:31.753Z,3.20
2023-03-29T23:20:59.135Z,3.15
2023-03-29T23:23:28.125Z,2.70
2023-03-29T23:25:55.868Z,3.10
2023-03-29T23:28:27.211Z,3.13
2023-03-29T23:31:03.282Z,2.90
2023-03-29T23:33:36.211Z,2.97
2023-03-29T23:36:06.049Z,2.58
2023-03-29T23:38:34.315Z,3.05
2023-03-29T23:41:03.782Z,2.70
2023-03-29T23:43:34.994Z,3.28
2023-03-29T23:46:05.067Z,3.33
2023-03-29T23:48:32.705Z,2.83
2023-03-29T23:50:59.882Z,3.20
2023-03-29T23:53:29.010Z,2.80
2023-03-29T23:56:01.312Z,2.97
2023-03-29T23:58:34.516Z,3.38
